sensor_id;sensor_type;location;lat;lon;timestamp;P1;durP1;ratioP1;P2;durP2;ratioP2
75768;SDS011;64379;48.888;8.330;2023-02-28T00:00:20;8.82;;;3.00;;
75768;SDS011;64379;48.888;8.330;2023-02-28T00:02:47;4.25;;;2.03;;
75768;SDS011;64379;48.888;8.330;2023-02-28T00:05:13;5.15;;;2.05;;
75768;SDS011;64379;48.888;8.330;2023-02-28T00:07:41;8.20;;;3.47;;
75768;SDS011;64379;48.888;8.330;2023-02-28T00:10:08;5.50;;;2.65;;
75768;SDS011;64379;48.888;8.330;2023-02-28T00:12:35;7.55;;;2.63;;
75768;SDS011;64379;48.888;8.330;2023-02-28T00:15:03;6.55;;;3.08;;
75768;SDS011;64379;48.888;8.330;2023-02-28T00:17:31;7.72;;;3.38;;
75768;SDS011;64379;48.888;8.330;2023-02-28T00:19:56;5.13;;;2.20;;
75768;SDS011;64379;48.888;8.330;2023-02-28T00:22:29;5.65;;;2.60;;
75768;SDS011;64379;48.888;8.330;2023-02-28T00:24:55;8.52;;;2.72;;
75768;SDS011;64379;48.888;8.330;2023-02-28T00:27:20;5.75;;;2.58;;
75768;SDS011;64379;48.888;8.330;2023-02-28T00:29:46;6.93;;;2.35;;
75768;SDS011;64379;48.888;8.330;2023-02-28T00:32:12;6.18;;;2.72;;
75768;SDS011;64379;48.888;8.330;2023-02-28T00:34:38;6.53;;;2.70;;
75768;SDS011;64379;48.888;8.330;2023-02-28T00:37:05;6.22;;;2.25;;
75768;SDS011;64379;48.888;8.330;2023-02-28T00:39:33;6.18;;;2.70;;
75768;SDS011;64379;48.888;8.330;2023-02-28T00:41:59;7.57;;;2.83;;
75768;SDS011;64379;48.888;8.330;2023-02-28T00:44:25;6.68;;;2.78;;
75768;SDS011;64379;48.888;8.330;2023-02-28T00:46:50;5.88;;;2.58;;
75768;SDS011;64379;48.888;8.330;2023-02-28T00:49:16;4.95;;;2.30;;
75768;SDS011;64379;48.888;8.330;2023-02-28T00:51:42;5.90;;;2.50;;
75768;SDS011;64379;48.888;8.330;2023-02-28T00:54:08;6.00;;;2.42;;
75768;SDS011;64379;48.888;8.330;2023-02-28T00:56:33;5.60;;;2.33;;
75768;SDS011;64379;48.888;8.330;2023-02-28T00:58:59;5.75;;;2.35;;
75768;SDS011;64379;48.888;8.330;2023-02-28T01:01:25;5.93;;;2.47;;
75768;SDS011;64379;48.888;8.330;2023-02-28T01:03:50;6.07;;;2.95;;
75768;SDS011;64379;48.888;8.330;2023-02-28T01:06:16;8.68;;;2.70;;
75768;SDS011;64379;48.888;8.330;2023-02-28T01:08:41;5.80;;;2.45;;
75768;SDS011;64379;48.888;8.330;2023-02-28T01:11:08;6.43;;;2.33;;
75768;SDS011;64379;48.888;8.330;2023-02-28T01:13:38;5.40;;;2.40;;
75768;SDS011;64379;48.888;8.330;2023-02-28T01:16:04;4.85;;;2.10;;
75768;SDS011;64379;48.888;8.330;2023-02-28T01:18:30;4.70;;;2.22;;
75768;SDS011;64379;48.888;8.330;2023-02-28T01:20:56;6.88;;;2.42;;
75768;SDS011;64379;48.888;8.330;2023-02-28T01:23:22;8.65;;;2.80;;
75768;SDS011;64379;48.888;8.330;2023-02-28T01:25:48;13.45;;;2.63;;
75768;SDS011;64379;48.888;8.330;2023-02-28T01:28:15;6.63;;;2.63;;
75768;SDS011;64379;48.888;8.330;2023-02-28T01:30:40;5.57;;;2.13;;
75768;SDS011;64379;48.888;8.330;2023-02-28T01:33:06;6.82;;;2.47;;
75768;SDS011;64379;48.888;8.330;2023-02-28T01:35:34;5.78;;;2.08;;
75768;SDS011;64379;48.888;8.330;2023-02-28T01:38:01;6.13;;;2.10;;
75768;SDS011;64379;48.888;8.330;2023-02-28T01:40:28;6.20;;;2.60;;
75768;SDS011;64379;48.888;8.330;2023-02-28T01:42:54;4.53;;;2.03;;
75768;SDS011;64379;48.888;8.330;2023-02-28T01:45:29;6.65;;;2.60;;
75768;SDS011;64379;48.888;8.330;2023-02-28T01:47:58;6.03;;;2.53;;
75768;SDS011;64379;48.888;8.330;2023-02-28T01:50:31;6.97;;;2.55;;
75768;SDS011;64379;48.888;8.330;2023-02-28T01:53:03;5.88;;;2.60;;
75768;SDS011;64379;48.888;8.330;2023-02-28T01:55:31;5.13;;;2.35;;
75768;SDS011;64379;48.888;8.330;2023-02-28T01:58:00;5.28;;;2.22;;
75768;SDS011;64379;48.888;8.330;2023-02-28T02:00:30;5.30;;;2.20;;
75768;SDS011;64379;48.888;8.330;2023-02-28T02:02:58;6.97;;;2.67;;
75768;SDS011;64379;48.888;8.330;2023-02-28T02:05:27;7.63;;;2.35;;
75768;SDS011;64379;48.888;8.330;2023-02-28T02:07:57;7.57;;;2.28;;
75768;SDS011;64379;48.888;8.330;2023-02-28T02:10:30;7.00;;;2.58;;
75768;SDS011;64379;48.888;8.330;2023-02-28T02:13:08;4.88;;;2.33;;
75768;SDS011;64379;48.888;8.330;2023-02-28T02:27:03;5.10;;;2.33;;
75768;SDS011;64379;48.888;8.330;2023-02-28T02:32:44;6.57;;;2.50;;
75768;SDS011;64379;48.888;8.330;2023-02-28T02:38:14;7.43;;;2.40;;
75768;SDS011;64379;48.888;8.330;2023-02-28T02:44:20;6.15;;;2.50;;
75768;SDS011;64379;48.888;8.330;2023-02-28T02:48:57;7.63;;;2.88;;
75768;SDS011;64379;48.888;8.330;2023-02-28T02:51:26;5.90;;;2.42;;
75768;SDS011;64379;48.888;8.330;2023-02-28T02:53:57;6.47;;;2.60;;
75768;SDS011;64379;48.888;8.330;2023-02-28T02:56:33;5.55;;;2.80;;
75768;SDS011;64379;48.888;8.330;2023-02-28T02:59:02;5.07;;;2.33;;
75768;SDS011;64379;48.888;8.330;2023-02-28T03:01:30;6.38;;;2.75;;
75768;SDS011;64379;48.888;8.330;2023-02-28T03:03:58;7.20;;;2.80;;
75768;SDS011;64379;48.888;8.330;2023-02-28T03:06:26;5.93;;;2.67;;
75768;SDS011;64379;48.888;8.330;2023-02-28T03:08:52;6.53;;;2.63;;
75768;SDS011;64379;48.888;8.330;2023-02-28T03:11:18;6.32;;;2.50;;
75768;SDS011;64379;48.888;8.330;2023-02-28T03:18:57;5.25;;;2.20;;
75768;SDS011;64379;48.888;8.330;2023-02-28T03:21:48;7.45;;;2.55;;
75768;SDS011;64379;48.888;8.330;2023-02-28T03:24:32;7.82;;;3.15;;
75768;SDS011;64379;48.888;8.330;2023-02-28T03:29:53;7.53;;;2.90;;
75768;SDS011;64379;48.888;8.330;2023-02-28T03:32:29;7.72;;;2.78;;
75768;SDS011;64379;48.888;8.330;2023-02-28T03:35:12;7.07;;;2.60;;
75768;SDS011;64379;48.888;8.330;2023-02-28T03:37:48;10.45;;;3.53;;
75768;SDS011;64379;48.888;8.330;2023-02-28T03:40:20;5.95;;;2.38;;
75768;SDS011;64379;48.888;8.330;2023-02-28T03:42:48;5.60;;;2.58;;
75768;SDS011;64379;48.888;8.330;2023-02-28T03:45:18;6.68;;;2.80;;
75768;SDS011;64379;48.888;8.330;2023-02-28T03:47:55;8.07;;;2.67;;
75768;SDS011;64379;48.888;8.330;2023-02-28T03:50:39;6.72;;;2.92;;
75768;SDS011;64379;48.888;8.330;2023-02-28T03:53:20;7.03;;;2.75;;
75768;SDS011;64379;48.888;8.330;2023-02-28T03:59:07;7.55;;;2.92;;
75768;SDS011;64379;48.888;8.330;2023-02-28T04:01:40;6.20;;;2.80;;
75768;SDS011;64379;48.888;8.330;2023-02-28T04:04:09;5.63;;;2.78;;
75768;SDS011;64379;48.888;8.330;2023-02-28T04:06:35;6.43;;;2.38;;
75768;SDS011;64379;48.888;8.330;2023-02-28T04:09:02;4.75;;;2.10;;
75768;SDS011;64379;48.888;8.330;2023-02-28T04:16:31;5.10;;;2.28;;
75768;SDS011;64379;48.888;8.330;2023-02-28T04:18:58;5.97;;;2.63;;
75768;SDS011;64379;48.888;8.330;2023-02-28T04:21:27;4.97;;;2.38;;
75768;SDS011;64379;48.888;8.330;2023-02-28T04:23:53;8.10;;;2.90;;
75768;SDS011;64379;48.888;8.330;2023-02-28T04:26:19;9.07;;;2.83;;
75768;SDS011;64379;48.888;8.330;2023-02-28T04:28:45;7.03;;;2.75;;
75768;SDS011;64379;48.888;8.330;2023-02-28T04:31:10;7.05;;;3.22;;
75768;SDS011;64379;48.888;8.330;2023-02-28T04:33:36;7.28;;;2.50;;
75768;SDS011;64379;48.888;8.330;2023-02-28T04:36:03;9.02;;;2.55;;
75768;SDS011;64379;48.888;8.330;2023-02-28T04:38:34;6.07;;;3.05;;
75768;SDS011;64379;48.888;8.330;2023-02-28T04:41:02;11.45;;;5.00;;
75768;SDS011;64379;48.888;8.330;2023-02-28T04:43:28;23.30;;;10.55;;
75768;SDS011;64379;48.888;8.330;2023-02-28T04:45:55;6.88;;;3.08;;
75768;SDS011;64379;48.888;8.330;2023-02-28T04:48:22;9.15;;;3.78;;
75768;SDS011;64379;48.888;8.330;2023-02-28T04:50:49;6.38;;;2.40;;
75768;SDS011;64379;48.888;8.330;2023-02-28T04:53:16;9.07;;;3.00;;
75768;SDS011;64379;48.888;8.330;2023-02-28T04:55:42;6.13;;;2.72;;
75768;SDS011;64379;48.888;8.330;2023-02-28T04:58:08;6.47;;;2.60;;
75768;SDS011;64379;48.888;8.330;2023-02-28T05:00:34;7.05;;;3.13;;
75768;SDS011;64379;48.888;8.330;2023-02-28T05:03:00;5.53;;;2.53;;
75768;SDS011;64379;48.888;8.330;2023-02-28T05:05:25;8.25;;;3.30;;
75768;SDS011;64379;48.888;8.330;2023-02-28T05:07:51;6.35;;;2.72;;
75768;SDS011;64379;48.888;8.330;2023-02-28T05:10:18;10.32;;;4.50;;
75768;SDS011;64379;48.888;8.330;2023-02-28T05:12:44;5.75;;;2.58;;
75768;SDS011;64379;48.888;8.330;2023-02-28T05:15:12;8.93;;;3.88;;
75768;SDS011;64379;48.888;8.330;2023-02-28T05:17:39;7.22;;;3.08;;
75768;SDS011;64379;48.888;8.330;2023-02-28T05:20:05;6.75;;;3.00;;
75768;SDS011;64379;48.888;8.330;2023-02-28T05:22:33;7.75;;;3.13;;
75768;SDS011;64379;48.888;8.330;2023-02-28T05:24:59;8.20;;;3.10;;
75768;SDS011;64379;48.888;8.330;2023-02-28T05:27:24;7.97;;;3.75;;
75768;SDS011;64379;48.888;8.330;2023-02-28T05:29:50;6.55;;;2.78;;
75768;SDS011;64379;48.888;8.330;2023-02-28T05:32:15;7.15;;;3.30;;
75768;SDS011;64379;48.888;8.330;2023-02-28T05:34:41;7.43;;;3.25;;
75768;SDS011;64379;48.888;8.330;2023-02-28T05:37:10;8.00;;;3.05;;
75768;SDS011;64379;48.888;8.330;2023-02-28T05:39:37;8.02;;;3.00;;
75768;SDS011;64379;48.888;8.330;2023-02-28T05:42:03;8.02;;;3.25;;
75768;SDS011;64379;48.888;8.330;2023-02-28T05:44:30;5.00;;;2.33;;
75768;SDS011;64379;48.888;8.330;2023-02-28T05:46:55;7.57;;;3.78;;
75768;SDS011;64379;48.888;8.330;2023-02-28T05:49:21;8.80;;;3.35;;
75768;SDS011;64379;48.888;8.330;2023-02-28T05:51:47;8.65;;;3.53;;
75768;SDS011;64379;48.888;8.330;2023-02-28T05:54:12;9.63;;;3.83;;
75768;SDS011;64379;48.888;8.330;2023-02-28T05:56:38;7.32;;;3.17;;
75768;SDS011;64379;48.888;8.330;2023-02-28T05:59:05;8.48;;;3.92;;
75768;SDS011;64379;48.888;8.330;2023-02-28T06:04:05;9.43;;;3.72;;
75768;SDS011;64379;48.888;8.330;2023-02-28T06:06:32;8.73;;;3.17;;
75768;SDS011;64379;48.888;8.330;2023-02-28T06:09:02;9.63;;;4.03;;
75768;SDS011;64379;48.888;8.330;2023-02-28T06:11:31;9.52;;;4.25;;
75768;SDS011;64379;48.888;8.330;2023-02-28T06:13:57;7.40;;;3.08;;
75768;SDS011;64379;48.888;8.330;2023-02-28T06:16:25;7.75;;;3.53;;
75768;SDS011;64379;48.888;8.330;2023-02-28T06:18:51;9.30;;;3.80;;
75768;SDS011;64379;48.888;8.330;2023-02-28T06:21:17;6.78;;;3.28;;
75768;SDS011;64379;48.888;8.330;2023-02-28T06:23:43;8.93;;;3.80;;
75768;SDS011;64379;48.888;8.330;2023-02-28T06:26:09;11.48;;;4.10;;
75768;SDS011;64379;48.888;8.330;2023-02-28T06:28:35;6.70;;;2.72;;
75768;SDS011;64379;48.888;8.330;2023-02-28T06:31:08;9.05;;;3.80;;
75768;SDS011;64379;48.888;8.330;2023-02-28T06:33:35;16.90;;;4.18;;
75768;SDS011;64379;48.888;8.330;2023-02-28T06:36:02;8.60;;;3.58;;
75768;SDS011;64379;48.888;8.330;2023-02-28T06:38:29;7.95;;;3.63;;
75768;SDS011;64379;48.888;8.330;2023-02-28T06:40:55;9.70;;;3.88;;
75768;SDS011;64379;48.888;8.330;2023-02-28T06:43:23;7.53;;;3.35;;
75768;SDS011;64379;48.888;8.330;2023-02-28T06:45:50;8.23;;;3.85;;
75768;SDS011;64379;48.888;8.330;2023-02-28T06:48:19;8.77;;;3.45;;
75768;SDS011;64379;48.888;8.330;2023-02-28T06:50:44;8.75;;;4.18;;
75768;SDS011;64379;48.888;8.330;2023-02-28T06:53:10;7.70;;;3.42;;
75768;SDS011;64379;48.888;8.330;2023-02-28T06:55:37;7.38;;;3.33;;
75768;SDS011;64379;48.888;8.330;2023-02-28T06:58:04;7.57;;;3.63;;
75768;SDS011;64379;48.888;8.330;2023-02-28T07:00:39;8.30;;;3.70;;
75768;SDS011;64379;48.888;8.330;2023-02-28T07:03:06;9.80;;;3.50;;
75768;SDS011;64379;48.888;8.330;2023-02-28T07:05:31;7.25;;;3.25;;
75768;SDS011;64379;48.888;8.330;2023-02-28T07:08:00;8.40;;;4.00;;
75768;SDS011;64379;48.888;8.330;2023-02-28T07:10:26;7.15;;;2.85;;
75768;SDS011;64379;48.888;8.330;2023-02-28T07:12:52;9.32;;;3.85;;
75768;SDS011;64379;48.888;8.330;2023-02-28T07:15:17;9.00;;;3.65;;
75768;SDS011;64379;48.888;8.330;2023-02-28T07:17:43;6.75;;;3.03;;
75768;SDS011;64379;48.888;8.330;2023-02-28T07:20:09;9.27;;;3.75;;
75768;SDS011;64379;48.888;8.330;2023-02-28T07:22:35;8.75;;;3.75;;
75768;SDS011;64379;48.888;8.330;2023-02-28T07:25:00;6.53;;;2.53;;
75768;SDS011;64379;48.888;8.330;2023-02-28T07:27:26;6.13;;;2.95;;
75768;SDS011;64379;48.888;8.330;2023-02-28T07:29:52;8.40;;;3.65;;
75768;SDS011;64379;48.888;8.330;2023-02-28T07:32:18;8.70;;;3.40;;
75768;SDS011;64379;48.888;8.330;2023-02-28T07:34:44;8.82;;;3.72;;
75768;SDS011;64379;48.888;8.330;2023-02-28T07:37:10;7.35;;;2.88;;
75768;SDS011;64379;48.888;8.330;2023-02-28T07:39:36;8.55;;;3.67;;
75768;SDS011;64379;48.888;8.330;2023-02-28T07:42:05;8.38;;;3.67;;
75768;SDS011;64379;48.888;8.330;2023-02-28T07:44:31;7.70;;;3.38;;
75768;SDS011;64379;48.888;8.330;2023-02-28T07:46:57;7.70;;;3.60;;
75768;SDS011;64379;48.888;8.330;2023-02-28T07:49:23;8.13;;;3.25;;
75768;SDS011;64379;48.888;8.330;2023-02-28T07:51:48;8.63;;;3.13;;
75768;SDS011;64379;48.888;8.330;2023-02-28T07:54:14;7.90;;;3.60;;
75768;SDS011;64379;48.888;8.330;2023-02-28T07:56:39;7.95;;;3.53;;
75768;SDS011;64379;48.888;8.330;2023-02-28T07:59:05;8.38;;;3.03;;
75768;SDS011;64379;48.888;8.330;2023-02-28T08:01:31;8.15;;;3.92;;
75768;SDS011;64379;48.888;8.330;2023-02-28T08:03:56;8.82;;;3.53;;
75768;SDS011;64379;48.888;8.330;2023-02-28T08:06:22;8.27;;;3.63;;
75768;SDS011;64379;48.888;8.330;2023-02-28T08:08:49;6.15;;;2.83;;
75768;SDS011;64379;48.888;8.330;2023-02-28T08:11:16;9.45;;;3.90;;
75768;SDS011;64379;48.888;8.330;2023-02-28T08:13:43;6.82;;;3.10;;
75768;SDS011;64379;48.888;8.330;2023-02-28T08:16:09;6.65;;;2.97;;
75768;SDS011;64379;48.888;8.330;2023-02-28T08:18:36;8.93;;;3.58;;
75768;SDS011;64379;48.888;8.330;2023-02-28T08:21:08;8.07;;;3.28;;
75768;SDS011;64379;48.888;8.330;2023-02-28T08:23:35;7.25;;;2.97;;
75768;SDS011;64379;48.888;8.330;2023-02-28T08:26:01;8.85;;;3.60;;
75768;SDS011;64379;48.888;8.330;2023-02-28T08:28:27;7.10;;;2.92;;
75768;SDS011;64379;48.888;8.330;2023-02-28T08:30:54;8.63;;;3.47;;
75768;SDS011;64379;48.888;8.330;2023-02-28T08:33:20;8.60;;;3.60;;
75768;SDS011;64379;48.888;8.330;2023-02-28T08:35:45;7.43;;;3.15;;
75768;SDS011;64379;48.888;8.330;2023-02-28T08:38:11;5.88;;;2.67;;
75768;SDS011;64379;48.888;8.330;2023-02-28T08:40:37;8.95;;;3.75;;
75768;SDS011;64379;48.888;8.330;2023-02-28T08:43:02;8.80;;;3.90;;
75768;SDS011;64379;48.888;8.330;2023-02-28T08:45:28;8.95;;;4.03;;
75768;SDS011;64379;48.888;8.330;2023-02-28T08:47:54;6.97;;;3.05;;
75768;SDS011;64379;48.888;8.330;2023-02-28T08:50:20;7.72;;;3.38;;
75768;SDS011;64379;48.888;8.330;2023-02-28T08:52:46;8.40;;;3.97;;
75768;SDS011;64379;48.888;8.330;2023-02-28T08:55:12;9.43;;;4.05;;
75768;SDS011;64379;48.888;8.330;2023-02-28T08:57:38;6.90;;;2.88;;
75768;SDS011;64379;48.888;8.330;2023-02-28T09:00:03;8.85;;;4.10;;
75768;SDS011;64379;48.888;8.330;2023-02-28T09:02:30;9.35;;;4.32;;
75768;SDS011;64379;48.888;8.330;2023-02-28T09:04:56;8.57;;;3.63;;
75768;SDS011;64379;48.888;8.330;2023-02-28T09:07:23;8.32;;;3.13;;
75768;SDS011;64379;48.888;8.330;2023-02-28T09:09:48;7.10;;;3.42;;
75768;SDS011;64379;48.888;8.330;2023-02-28T09:12:22;8.65;;;3.92;;
75768;SDS011;64379;48.888;8.330;2023-02-28T09:14:52;7.13;;;3.45;;
75768;SDS011;64379;48.888;8.330;2023-02-28T09:17:18;8.57;;;3.70;;
75768;SDS011;64379;48.888;8.330;2023-02-28T09:19:44;9.02;;;3.30;;
75768;SDS011;64379;48.888;8.330;2023-02-28T09:22:12;8.93;;;4.57;;
75768;SDS011;64379;48.888;8.330;2023-02-28T09:24:38;10.55;;;4.03;;
75768;SDS011;64379;48.888;8.330;2023-02-28T09:27:04;6.18;;;2.78;;
75768;SDS011;64379;48.888;8.330;2023-02-28T09:29:30;7.72;;;3.15;;
75768;SDS011;64379;48.888;8.330;2023-02-28T09:31:57;7.97;;;3.90;;
75768;SDS011;64379;48.888;8.330;2023-02-28T09:34:23;9.35;;;3.65;;
75768;SDS011;64379;48.888;8.330;2023-02-28T09:36:49;7.85;;;3.78;;
75768;SDS011;64379;48.888;8.330;2023-02-28T09:39:19;8.23;;;4.05;;
75768;SDS011;64379;48.888;8.330;2023-02-28T09:41:47;8.77;;;3.50;;
75768;SDS011;64379;48.888;8.330;2023-02-28T09:47:07;10.10;;;4.50;;
75768;SDS011;64379;48.888;8.330;2023-02-28T09:49:54;12.02;;;5.20;;
75768;SDS011;64379;48.888;8.330;2023-02-28T09:52:28;9.40;;;3.47;;
75768;SDS011;64379;48.888;8.330;2023-02-28T09:55:00;8.55;;;4.53;;
75768;SDS011;64379;48.888;8.330;2023-02-28T09:57:43;8.55;;;4.38;;
75768;SDS011;64379;48.888;8.330;2023-02-28T10:00:19;9.80;;;4.10;;
75768;SDS011;64379;48.888;8.330;2023-02-28T10:05:24;8.95;;;4.35;;
75768;SDS011;64379;48.888;8.330;2023-02-28T10:10:49;10.23;;;4.85;;
75768;SDS011;64379;48.888;8.330;2023-02-28T10:13:25;8.23;;;3.97;;
75768;SDS011;64379;48.888;8.330;2023-02-28T10:19:14;10.68;;;4.40;;
75768;SDS011;64379;48.888;8.330;2023-02-28T10:21:55;11.63;;;4.65;;
75768;SDS011;64379;48.888;8.330;2023-02-28T10:24:40;9.27;;;4.72;;
75768;SDS011;64379;48.888;8.330;2023-02-28T10:27:21;8.32;;;4.30;;
75768;SDS011;64379;48.888;8.330;2023-02-28T10:29:54;9.25;;;4.47;;
75768;SDS011;64379;48.888;8.330;2023-02-28T10:32:22;8.93;;;4.22;;
75768;SDS011;64379;48.888;8.330;2023-02-28T10:37:57;9.30;;;4.38;;
75768;SDS011;64379;48.888;8.330;2023-02-28T10:40:30;10.82;;;4.88;;
75768;SDS011;64379;48.888;8.330;2023-02-28T10:45:31;9.00;;;4.35;;
75768;SDS011;64379;48.888;8.330;2023-02-28T11:06:48;9.88;;;4.25;;
75768;SDS011;64379;48.888;8.330;2023-02-28T11:11:54;8.85;;;4.35;;
75768;SDS011;64379;48.888;8.330;2023-02-28T11:17:27;7.93;;;3.83;;
75768;SDS011;64379;48.888;8.330;2023-02-28T11:19:56;8.20;;;3.97;;
75768;SDS011;64379;48.888;8.330;2023-02-28T11:22:39;7.97;;;3.85;;
75768;SDS011;64379;48.888;8.330;2023-02-28T11:25:13;8.27;;;4.05;;
75768;SDS011;64379;48.888;8.330;2023-02-28T11:27:49;10.43;;;4.60;;
75768;SDS011;64379;48.888;8.330;2023-02-28T11:30:27;9.25;;;4.25;;
75768;SDS011;64379;48.888;8.330;2023-02-28T11:33:13;12.13;;;4.20;;
75768;SDS011;64379;48.888;8.330;2023-02-28T11:35:48;11.02;;;4.93;;
75768;SDS011;64379;48.888;8.330;2023-02-28T11:38:15;10.40;;;4.45;;
75768;SDS011;64379;48.888;8.330;2023-02-28T11:46:23;9.98;;;4.70;;
75768;SDS011;64379;48.888;8.330;2023-02-28T11:49:03;10.32;;;4.60;;
75768;SDS011;64379;48.888;8.330;2023-02-28T11:51:53;9.75;;;4.57;;
75768;SDS011;64379;48.888;8.330;2023-02-28T11:57:00;9.68;;;4.18;;
75768;SDS011;64379;48.888;8.330;2023-02-28T11:59:50;8.57;;;4.07;;
75768;SDS011;64379;48.888;8.330;2023-02-28T12:02:28;12.88;;;4.63;;
75768;SDS011;64379;48.888;8.330;2023-02-28T12:08:15;10.95;;;5.00;;
75768;SDS011;64379;48.888;8.330;2023-02-28T12:13:48;9.95;;;5.15;;
75768;SDS011;64379;48.888;8.330;2023-02-28T12:27:34;9.30;;;4.10;;
75768;SDS011;64379;48.888;8.330;2023-02-28T12:30:04;10.35;;;5.03;;
75768;SDS011;64379;48.888;8.330;2023-02-28T12:32:44;10.43;;;5.13;;
75768;SDS011;64379;48.888;8.330;2023-02-28T12:35:19;11.98;;;4.90;;
75768;SDS011;64379;48.888;8.330;2023-02-28T12:37:54;9.65;;;5.10;;
75768;SDS011;64379;48.888;8.330;2023-02-28T12:40:27;11.07;;;5.50;;
75768;SDS011;64379;48.888;8.330;2023-02-28T12:43:14;9.85;;;4.68;;
75768;SDS011;64379;48.888;8.330;2023-02-28T12:48:14;11.23;;;5.43;;
75768;SDS011;64379;48.888;8.330;2023-02-28T12:50:44;9.20;;;4.93;;
75768;SDS011;64379;48.888;8.330;2023-02-28T12:59:31;14.18;;;6.00;;
75768;SDS011;64379;48.888;8.330;2023-02-28T13:12:47;11.45;;;4.60;;
75768;SDS011;64379;48.888;8.330;2023-02-28T13:15:19;10.32;;;4.35;;
75768;SDS011;64379;48.888;8.330;2023-02-28T13:17:53;10.35;;;4.68;;
75768;SDS011;64379;48.888;8.330;2023-02-28T13:20:25;10.65;;;4.72;;
75768;SDS011;64379;48.888;8.330;2023-02-28T13:22:54;11.05;;;4.88;;
75768;SDS011;64379;48.888;8.330;2023-02-28T13:25:49;10.35;;;5.53;;
75768;SDS011;64379;48.888;8.330;2023-02-28T13:28:11;11.13;;;5.93;;
75768;SDS011;64379;48.888;8.330;2023-02-28T13:36:07;11.45;;;5.20;;
75768;SDS011;64379;48.888;8.330;2023-02-28T13:49:25;12.27;;;5.57;;
75768;SDS011;64379;48.888;8.330;2023-02-28T13:57:57;9.02;;;4.80;;
75768;SDS011;64379;48.888;8.330;2023-02-28T14:01:03;11.10;;;5.25;;
75768;SDS011;64379;48.888;8.330;2023-02-28T14:03:37;9.27;;;4.38;;
75768;SDS011;64379;48.888;8.330;2023-02-28T14:08:54;9.13;;;4.18;;
75768;SDS011;64379;48.888;8.330;2023-02-28T14:11:39;9.93;;;4.72;;
75768;SDS011;64379;48.888;8.330;2023-02-28T14:14:07;8.85;;;4.68;;
75768;SDS011;64379;48.888;8.330;2023-02-28T14:19:15;10.68;;;5.07;;
75768;SDS011;64379;48.888;8.330;2023-02-28T14:30:56;10.38;;;5.25;;
75768;SDS011;64379;48.888;8.330;2023-02-28T14:33:25;10.23;;;5.50;;
75768;SDS011;64379;48.888;8.330;2023-02-28T14:35:59;11.02;;;5.93;;
75768;SDS011;64379;48.888;8.330;2023-02-28T14:38:43;10.32;;;5.50;;
75768;SDS011;64379;48.888;8.330;2023-02-28T14:43:58;11.68;;;5.85;;
75768;SDS011;64379;48.888;8.330;2023-02-28T14:46:38;9.88;;;5.40;;
75768;SDS011;64379;48.888;8.330;2023-02-28T14:49:06;10.75;;;5.28;;
75768;SDS011;64379;48.888;8.330;2023-02-28T14:51:38;13.30;;;6.22;;
75768;SDS011;64379;48.888;8.330;2023-02-28T14:54:03;9.48;;;4.95;;
75768;SDS011;64379;48.888;8.330;2023-02-28T14:56:32;11.45;;;5.90;;
75768;SDS011;64379;48.888;8.330;2023-02-28T14:59:01;11.35;;;5.28;;
75768;SDS011;64379;48.888;8.330;2023-02-28T15:01:28;11.35;;;5.70;;
75768;SDS011;64379;48.888;8.330;2023-02-28T15:04:04;9.70;;;5.20;;
75768;SDS011;64379;48.888;8.330;2023-02-28T15:06:31;9.98;;;5.13;;
75768;SDS011;64379;48.888;8.330;2023-02-28T15:09:07;11.05;;;5.65;;
75768;SDS011;64379;48.888;8.330;2023-02-28T15:11:35;10.95;;;5.20;;
75768;SDS011;64379;48.888;8.330;2023-02-28T15:14:01;13.65;;;5.32;;
75768;SDS011;64379;48.888;8.330;2023-02-28T15:16:34;10.23;;;5.45;;
75768;SDS011;64379;48.888;8.330;2023-02-28T15:19:20;9.52;;;4.50;;
75768;SDS011;64379;48.888;8.330;2023-02-28T15:21:51;9.75;;;5.03;;
75768;SDS011;64379;48.888;8.330;2023-02-28T15:24:42;12.70;;;5.38;;
75768;SDS011;64379;48.888;8.330;2023-02-28T15:27:24;10.40;;;5.65;;
75768;SDS011;64379;48.888;8.330;2023-02-28T15:29:56;8.63;;;4.35;;
75768;SDS011;64379;48.888;8.330;2023-02-28T15:32:25;9.80;;;5.10;;
75768;SDS011;64379;48.888;8.330;2023-02-28T15:34:51;12.40;;;5.57;;
75768;SDS011;64379;48.888;8.330;2023-02-28T15:40:17;9.35;;;4.75;;
75768;SDS011;64379;48.888;8.330;2023-02-28T15:45:58;11.25;;;5.80;;
75768;SDS011;64379;48.888;8.330;2023-02-28T15:48:35;10.70;;;5.78;;
75768;SDS011;64379;48.888;8.330;2023-02-28T15:51:07;11.50;;;5.38;;
75768;SDS011;64379;48.888;8.330;2023-02-28T15:54:40;12.07;;;6.10;;
75768;SDS011;64379;48.888;8.330;2023-02-28T15:56:45;10.27;;;5.43;;
75768;SDS011;64379;48.888;8.330;2023-02-28T15:59:21;9.52;;;5.35;;
75768;SDS011;64379;48.888;8.330;2023-02-28T16:04:57;13.35;;;6.18;;
75768;SDS011;64379;48.888;8.330;2023-02-28T16:07:25;10.55;;;6.43;;
75768;SDS011;64379;48.888;8.330;2023-02-28T16:09:51;16.42;;;6.47;;
75768;SDS011;64379;48.888;8.330;2023-02-28T16:12:16;12.50;;;6.28;;
75768;SDS011;64379;48.888;8.330;2023-02-28T16:14:42;11.13;;;5.68;;
75768;SDS011;64379;48.888;8.330;2023-02-28T16:17:23;9.93;;;5.00;;
75768;SDS011;64379;48.888;8.330;2023-02-28T16:19:51;15.18;;;6.18;;
75768;SDS011;64379;48.888;8.330;2023-02-28T16:22:17;11.68;;;6.03;;
75768;SDS011;64379;48.888;8.330;2023-02-28T16:24:42;12.07;;;4.78;;
75768;SDS011;64379;48.888;8.330;2023-02-28T16:27:16;9.98;;;5.15;;
75768;SDS011;64379;48.888;8.330;2023-02-28T16:29:45;10.50;;;5.35;;
75768;SDS011;64379;48.888;8.330;2023-02-28T16:32:13;9.55;;;4.93;;
75768;SDS011;64379;48.888;8.330;2023-02-28T16:34:40;11.20;;;5.57;;
75768;SDS011;64379;48.888;8.330;2023-02-28T16:37:16;11.10;;;5.78;;
75768;SDS011;64379;48.888;8.330;2023-02-28T16:39:43;10.45;;;5.07;;
75768;SDS011;64379;48.888;8.330;2023-02-28T16:42:17;12.23;;;6.43;;
75768;SDS011;64379;48.888;8.330;2023-02-28T16:44:49;11.10;;;5.72;;
75768;SDS011;64379;48.888;8.330;2023-02-28T16:47:16;13.20;;;5.72;;
75768;SDS011;64379;48.888;8.330;2023-02-28T16:49:42;10.40;;;5.55;;
75768;SDS011;64379;48.888;8.330;2023-02-28T16:52:10;12.13;;;5.45;;
75768;SDS011;64379;48.888;8.330;2023-02-28T16:54:39;11.38;;;6.15;;
75768;SDS011;64379;48.888;8.330;2023-02-28T16:57:06;13.00;;;6.00;;
75768;SDS011;64379;48.888;8.330;2023-02-28T16:59:43;15.23;;;7.20;;
75768;SDS011;64379;48.888;8.330;2023-02-28T17:02:12;12.02;;;5.93;;
75768;SDS011;64379;48.888;8.330;2023-02-28T17:04:40;11.20;;;5.72;;
75768;SDS011;64379;48.888;8.330;2023-02-28T17:07:09;12.70;;;6.53;;
75768;SDS011;64379;48.888;8.330;2023-02-28T17:09:37;12.45;;;6.68;;
75768;SDS011;64379;48.888;8.330;2023-02-28T17:12:02;12.35;;;5.95;;
75768;SDS011;64379;48.888;8.330;2023-02-28T17:14:28;14.02;;;7.43;;
75768;SDS011;64379;48.888;8.330;2023-02-28T17:16:54;11.35;;;5.97;;
75768;SDS011;64379;48.888;8.330;2023-02-28T17:19:19;12.40;;;5.90;;
75768;SDS011;64379;48.888;8.330;2023-02-28T17:21:45;12.95;;;6.50;;
75768;SDS011;64379;48.888;8.330;2023-02-28T17:24:11;13.45;;;6.82;;
75768;SDS011;64379;48.888;8.330;2023-02-28T17:26:42;13.18;;;6.05;;
75768;SDS011;64379;48.888;8.330;2023-02-28T17:29:18;14.98;;;5.35;;
75768;SDS011;64379;48.888;8.330;2023-02-28T17:31:46;11.88;;;5.85;;
75768;SDS011;64379;48.888;8.330;2023-02-28T17:34:11;13.18;;;6.50;;
75768;SDS011;64379;48.888;8.330;2023-02-28T17:36:43;12.35;;;5.93;;
75768;SDS011;64379;48.888;8.330;2023-02-28T17:39:10;13.30;;;6.25;;
75768;SDS011;64379;48.888;8.330;2023-02-28T17:41:38;12.10;;;6.70;;
75768;SDS011;64379;48.888;8.330;2023-02-28T17:44:06;14.48;;;6.68;;
75768;SDS011;64379;48.888;8.330;2023-02-28T17:46:31;16.88;;;7.63;;
75768;SDS011;64379;48.888;8.330;2023-02-28T17:48:57;12.52;;;6.18;;
75768;SDS011;64379;48.888;8.330;2023-02-28T17:51:23;14.43;;;7.35;;
75768;SDS011;64379;48.888;8.330;2023-02-28T17:53:49;16.13;;;7.68;;